This is the latest recevied weather packets stored in our database for station/object OE1HTB-13. If no packets are shown the sender has not sent any weather packets the latest 1 day(s).
| Time | Temp. | Humidity | Pressure | Rain* | Wind** | Luminosity | Snow |
|---|---|---|---|---|---|---|---|
| 1778077873 | 24.44° C | 41% | 1002.9 hPa | 0 mm | - | 492 W/m² | - |
| 1778075173 | 25° C | 40% | 1003.5 hPa | 0 mm | - | 548 W/m² | - |
| 1778074273 | 25° C | 40% | 1003.5 hPa | 0 mm | - | 744 W/m² | - |
| 1778068872 | 22.78° C | 45% | 1004.7 hPa | 0 mm | - | 287 W/m² | - |
| 1778067972 | 22.78° C | 46% | 1004.8 hPa | 0 mm | - | 392 W/m² | - |
| 1778066171 | 23.89° C | 49% | 1005.2 hPa | 0 mm | - | 872 W/m² | - |
| 1778064371 | 23.89° C | 44% | 1005.9 hPa | 0 mm | - | 905 W/m² | - |
| 1778062571 | 22.78° C | 47% | 1006 hPa | 0 mm | - | 860 W/m² | - |
| 1778059870 | 23.33° C | 46% | 1006.4 hPa | 0 mm | - | 814 W/m² | - |
| 1778058970 | 21.67° C | 52% | 1006.6 hPa | 0 mm | - | 232 W/m² | - |
| 1778058070 | 22.78° C | 50% | 1006.5 hPa | 0 mm | - | 675 W/m² | - |
| 1778056274 | 22.78° C | 46% | 1006.6 hPa | 0 mm | - | 701 W/m² | - |
| 1778055376 | 22.78° C | 47% | 1006.8 hPa | 0 mm | - | 671 W/m² | - |
| 1778054475 | 22.22° C | 50% | 1006.8 hPa | 0 mm | - | 645 W/m² | - |
| 1778053574 | 21.67° C | 47% | 1006.9 hPa | 0 mm | - | 603 W/m² | - |
| 1778052674 | 21.11° C | 52% | 1006.9 hPa | 0 mm | - | 585 W/m² | - |
| 1778051775 | 21.11° C | 52% | 1007 hPa | 0 mm | - | 543 W/m² | - |
| 1778050874 | 20° C | 56% | 1007.1 hPa | 0 mm | - | 506 W/m² | - |
| 1778048173 | 17.22° C | 65% | 1007.2 hPa | 0 mm | - | 113 W/m² | - |
| 1778047273 | 16.67° C | 67% | 1007.2 hPa | 0 mm | - | 54 W/m² | - |
| 1778046373 | 16.11° C | 67% | 1007.3 hPa | 0 mm | - | 100 W/m² | - |
| 1778045473 | 16.11° C | 69% | 1007.3 hPa | 0 mm | - | 118 W/m² | - |
| 1778044573 | 16.11° C | 68% | 1007.3 hPa | 0 mm | - | 54 W/m² | - |
| 1778043674 | 15.56° C | 73% | 1007.3 hPa | 0 mm | - | 100 W/m² | - |
| 1778042772 | 14.44° C | 74% | 1007.1 hPa | 0 mm | - | 104 W/m² | - |
* Rain latest hour (hover to see other rain measurements)
** Current wind speed in m/s (hover to see current wind gust speed)